Time;durP1;ratioP1;P1;durP2;ratioP2;P2;SDS_P1;SDS_P2;PMS_P1;PMS_P2;Temp;Humidity;BMP_temperature;BMP_pressure;BME280_temperature;BME280_humidity;BME280_pressure;Samples;Min_cycle;Max_cycle;Signal;HPM_P1;HPM_P2
2023/05/22 00:01:18;;;;;;;1.80;1.65;;;17.40;89.10;17.50;100674.00;;;;4988129;28;87833;-69
2023/05/22 00:03:44;;;;;;;1.85;1.60;;;17.40;89.20;17.50;100666.00;;;;4982922;28;88108;-68
2023/05/22 00:06:10;;;;;;;2.45;1.40;;;17.40;89.20;17.50;100677.00;;;;4966499;28;88126;-69
2023/05/22 00:08:37;;;;;;;1.67;1.45;;;17.40;89.30;17.40;100672.00;;;;4985670;28;88795;-69
2023/05/22 00:11:03;;;;;;;2.22;2.03;;;17.40;89.50;17.40;100665.00;;;;4986266;28;110170;-70
2023/05/22 00:13:28;;;;;;;1.48;1.17;;;17.30;89.80;17.40;100663.00;;;;4989247;28;100436;-69
2023/05/22 00:15:54;;;;;;;1.60;1.50;;;17.30;90.00;17.40;100655.00;;;;4984872;28;118884;-69
2023/05/22 00:18:20;;;;;;;1.98;1.77;;;17.30;90.00;17.30;100655.00;;;;4984318;28;117490;-68
2023/05/22 00:20:45;;;;;;;2.60;2.30;;;17.30;90.20;17.30;100658.00;;;;4987335;28;88823;-68
2023/05/22 00:23:12;;;;;;;2.28;2.03;;;17.20;90.30;17.30;100657.00;;;;4984286;28;108503;-70
2023/05/22 00:25:38;;;;;;;4.72;1.90;;;17.20;90.40;17.20;100669.00;;;;4982274;27;87876;-68
2023/05/22 00:28:04;;;;;;;2.10;1.88;;;17.20;90.50;17.20;100660.00;;;;4984871;28;101786;-68
2023/05/22 00:30:30;;;;;;;2.28;2.08;;;17.10;90.60;17.10;100654.00;;;;4981016;28;95704;-68
2023/05/22 00:32:56;;;;;;;1.90;1.65;;;17.10;90.70;17.10;100649.00;;;;4984230;28;87943;-69
2023/05/22 00:35:22;;;;;;;2.35;1.98;;;17.00;90.70;17.10;100656.00;;;;4983656;28;89313;-68
2023/05/22 00:37:48;;;;;;;1.50;1.40;;;17.00;90.90;17.00;100656.00;;;;4983351;28;116758;-68
2023/05/22 00:40:14;;;;;;;1.70;1.60;;;17.00;91.00;17.00;100645.00;;;;4965365;28;88669;-69
2023/05/22 00:42:43;;;;;;;2.42;1.40;;;16.90;91.10;16.90;100650.00;;;;4966117;28;87761;-69
2023/05/22 00:45:18;;;;;;;2.40;2.20;;;16.90;91.20;16.90;100653.00;;;;4969746;28;89116;-69
2023/05/22 00:47:45;;;;;;;2.05;1.70;;;16.80;91.30;16.80;100655.00;;;;4983618;28;105573;-69
2023/05/22 00:50:11;;;;;;;1.90;1.77;;;16.80;91.40;16.80;100649.00;;;;4984368;28;87996;-70
2023/05/22 00:52:41;;;;;;;2.97;2.20;;;16.70;91.50;16.80;100645.00;;;;4984208;28;109325;-69
2023/05/22 00:55:09;;;;;;;5.63;2.05;;;16.70;91.70;16.70;100653.00;;;;4985784;28;88571;-70
2023/05/22 00:57:37;;;;;;;4.18;1.88;;;16.70;91.90;16.70;100650.00;;;;4973554;28;87981;-69
2023/05/22 01:00:09;;;;;;;3.65;2.28;;;16.60;92.00;16.60;100649.00;;;;4984234;28;88025;-69
2023/05/22 01:02:35;;;;;;;1.85;1.50;;;16.60;92.10;16.60;100645.00;;;;4984617;28;87164;-69
2023/05/22 01:05:04;;;;;;;2.00;1.80;;;16.50;92.20;16.60;100650.00;;;;4985868;28;88200;-69
2023/05/22 01:07:31;;;;;;;1.45;1.35;;;16.50;92.40;16.50;100649.00;;;;4967231;28;87950;-69
2023/05/22 01:09:57;;;;;;;4.68;2.53;;;16.50;92.50;16.50;100653.00;;;;4987160;28;88761;-69
2023/05/22 01:12:46;;;;;;;4.20;2.22;;;16.40;92.60;16.40;100651.00;;;;4984834;28;109010;-69
2023/05/22 01:15:28;;;;;;;2.58;1.63;;;16.40;92.80;16.40;100644.00;;;;4973101;28;88020;-68
2023/05/22 01:18:28;;;;;;;3.45;1.70;;;16.40;93.00;16.30;100658.00;;;;4968312;28;109418;-68
2023/05/22 01:21:21;;;;;;;1.73;1.63;;;16.30;93.20;16.30;100645.00;;;;4981072;28;87786;-69
2023/05/22 01:24:36;;;;;;;2.75;1.55;;;16.30;93.50;16.20;100648.00;;;;4973100;28;87945;-68
2023/05/22 01:27:33;;;;;;;2.45;2.25;;;16.20;93.70;16.20;100653.00;;;;4973663;28;88892;-67
2023/05/22 01:30:30;;;;;;;2.22;1.70;;;16.20;93.90;16.20;100658.00;;;;4983432;28;87248;-69
2023/05/22 01:32:57;;;;;;;1.67;1.55;;;16.20;94.10;16.20;100650.00;;;;4987504;28;89237;-69
2023/05/22 01:35:24;;;;;;;3.28;1.67;;;16.10;94.30;16.10;100655.00;;;;4966861;28;88006;-67
2023/05/22 01:37:50;;;;;;;4.05;2.10;;;16.10;94.50;16.10;100650.00;;;;4968629;28;96442;-68
2023/05/22 01:40:17;;;;;;;1.73;1.63;;;16.10;94.50;16.10;100651.00;;;;4981827;28;117608;-70
2023/05/22 01:42:43;;;;;;;2.53;2.10;;;16.00;94.70;16.10;100649.00;;;;4967418;28;110152;-69
2023/05/22 01:45:10;;;;;;;1.73;1.63;;;16.00;94.80;16.00;100648.00;;;;4962878;28;108707;-68
2023/05/22 01:47:36;;;;;;;2.03;1.50;;;16.00;94.90;16.00;100642.00;;;;4975386;28;88776;-68
2023/05/22 01:50:03;;;;;;;5.25;2.05;;;16.00;95.00;16.00;100650.00;;;;4964460;28;117108;-68
2023/05/22 01:53:06;;;;;;;2.33;1.50;;;16.00;95.00;15.90;100644.00;;;;4973055;28;87734;-68
2023/05/22 01:55:41;;;;;;;3.60;2.47;;;15.90;95.20;15.90;100654.00;;;;4971293;28;87054;-69
2023/05/22 01:58:55;;;;;;;3.17;1.60;;;15.90;95.30;15.80;100654.00;;;;4964639;28;87911;-69
2023/05/22 02:01:23;;;;;;;2.25;2.05;;;15.90;95.40;15.90;100655.00;;;;4979025;28;110539;-69
2023/05/22 02:03:55;;;;;;;2.10;1.58;;;15.80;95.50;15.90;100658.00;;;;4966722;28;110353;-70
2023/05/22 02:06:21;;;;;;;4.05;1.80;;;15.80;95.70;15.80;100657.00;;;;4972753;28;88419;-68
2023/05/22 02:08:47;;;;;;;2.15;1.95;;;15.80;95.80;15.80;100651.00;;;;4982753;28;118213;-69
2023/05/22 02:11:15;;;;;;;2.90;1.88;;;15.70;95.90;15.80;100651.00;;;;4967492;28;115702;-68
2023/05/22 02:13:41;;;;;;;1.80;1.33;;;15.70;96.00;15.70;100641.00;;;;4965213;28;87804;-69
2023/05/22 02:16:07;;;;;;;3.22;2.10;;;15.70;96.20;15.70;100647.00;;;;4982957;28;103221;-68
2023/05/22 02:18:33;;;;;;;2.45;2.25;;;15.70;96.40;15.70;100640.00;;;;4970443;28;107473;-69
2023/05/22 02:20:59;;;;;;;8.15;2.03;;;15.60;96.30;15.70;100643.00;;;;4985960;28;97865;-69
2023/05/22 02:23:28;;;;;;;5.88;2.08;;;15.60;96.40;15.60;100641.00;;;;4975745;28;88139;-69
2023/05/22 02:25:54;;;;;;;2.55;2.30;;;15.60;96.70;15.60;100642.00;;;;4984864;28;87782;-69
2023/05/22 02:28:20;;;;;;;3.15;2.13;;;15.50;96.90;15.50;100636.00;;;;4986636;28;90293;-69
2023/05/22 02:30:46;;;;;;;2.38;1.98;;;15.50;97.10;15.50;100632.00;;;;4973521;28;88044;-69
2023/05/22 02:33:11;;;;;;;3.15;2.28;;;15.40;97.20;15.50;100627.00;;;;4988863;28;109528;-68
2023/05/22 02:35:37;;;;;;;3.08;2.17;;;15.40;97.70;15.50;100632.00;;;;4987236;28;87798;-68
2023/05/22 02:38:03;;;;;;;2.03;1.83;;;15.40;97.80;15.40;100621.00;;;;4986588;28;118490;-68
2023/05/22 02:40:29;;;;;;;3.70;2.47;;;15.40;98.00;15.40;100628.00;;;;4986516;28;100620;-68
2023/05/22 02:42:54;;;;;;;2.55;2.03;;;15.40;98.20;15.40;100628.00;;;;4986575;28;95969;-68
2023/05/22 02:45:21;;;;;;;2.75;2.17;;;15.30;98.40;15.40;100629.00;;;;4985913;27;110220;-67
2023/05/22 02:47:46;;;;;;;2.97;2.03;;;15.40;98.60;15.40;100620.00;;;;4986857;28;104498;-68
2023/05/22 02:50:12;;;;;;;2.92;2.03;;;15.30;98.60;15.40;100624.00;;;;4986571;27;115684;-67
2023/05/22 02:52:38;;;;;;;2.10;1.90;;;15.30;98.80;15.30;100626.00;;;;4984984;28;110835;-68
2023/05/22 02:55:04;;;;;;;1.95;1.58;;;15.30;99.00;15.30;100631.00;;;;4985023;28;87849;-69
2023/05/22 02:57:30;;;;;;;3.08;2.10;;;15.30;99.20;15.30;100623.00;;;;4978344;28;88129;-68
2023/05/22 02:59:56;;;;;;;4.82;2.13;;;15.30;99.30;15.30;100625.00;;;;4985460;28;88328;-68
2023/05/22 03:02:24;;;;;;;3.67;2.28;;;15.20;99.40;15.30;100626.00;;;;4989187;28;88028;-69
2023/05/22 03:04:50;;;;;;;1.85;1.65;;;15.20;99.90;15.20;100621.00;;;;4987443;28;88035;-69
2023/05/22 03:07:15;;;;;;;2.80;2.60;;;15.20;99.60;15.20;100618.00;;;;4979139;28;108337;-69
2023/05/22 03:09:41;;;;;;;2.88;2.17;;;15.20;99.70;15.20;100632.00;;;;4987969;28;92804;-69
2023/05/22 03:12:08;;;;;;;2.35;2.10;;;15.10;99.80;15.20;100624.00;;;;4987781;28;97877;-70
2023/05/22 03:14:34;;;;;;;3.72;2.58;;;15.10;99.90;15.10;100622.00;;;;4976597;28;87734;-71
2023/05/22 03:16:59;;;;;;;2.15;1.77;;;15.10;99.90;15.10;100610.00;;;;4977074;28;110900;-70
2023/05/22 03:19:25;;;;;;;2.63;2.15;;;15.10;99.90;15.10;100622.00;;;;4987730;28;89025;-71
2023/05/22 03:21:51;;;;;;;2.03;1.83;;;15.10;99.90;15.10;100616.00;;;;4985914;28;107011;-70
2023/05/22 03:24:16;;;;;;;2.38;2.13;;;15.00;99.90;15.10;100619.00;;;;4985371;28;109321;-70
2023/05/22 03:26:42;;;;;;;2.47;1.60;;;14.90;99.90;15.10;100622.00;;;;4977273;28;116953;-70
2023/05/22 03:29:08;;;;;;;3.53;2.40;;;15.00;99.90;15.10;100619.00;;;;4986291;28;97483;-69
2023/05/22 03:31:35;;;;;;;3.85;2.35;;;15.00;99.90;15.10;100619.00;;;;4986486;28;110601;-69
2023/05/22 03:34:01;;;;;;;1.85;1.75;;;15.00;99.90;15.10;100626.00;;;;4987344;28;107783;-71
2023/05/22 03:36:26;;;;;;;3.00;2.35;;;15.00;99.90;15.10;100613.00;;;;4989234;28;89401;-69
2023/05/22 03:38:52;;;;;;;3.15;1.95;;;15.00;99.90;15.10;100628.00;;;;4985974;28;117123;-70
2023/05/22 03:41:18;;;;;;;2.90;2.22;;;15.00;99.90;15.10;100620.00;;;;4978352;28;109519;-70
2023/05/22 03:43:45;;;;;;;2.35;2.15;;;15.00;99.90;15.10;100615.00;;;;4987646;28;109102;-70
2023/05/22 03:46:10;;;;;;;2.83;2.63;;;15.00;99.90;15.10;100620.00;;;;4979289;28;88170;-69
2023/05/22 03:48:37;;;;;;;2.33;1.85;;;15.10;99.90;15.10;100621.00;;;;4985409;28;116932;-69
2023/05/22 03:51:05;;;;;;;2.70;2.22;;;15.10;99.90;15.20;100623.00;;;;4996290;27;101515;-68
2023/05/22 03:53:31;;;;;;;2.55;2.22;;;15.10;99.90;15.20;100621.00;;;;4992717;27;108992;-69
2023/05/22 03:55:57;;;;;;;3.20;2.63;;;15.10;99.90;15.20;100619.00;;;;5004571;27;116659;-69
2023/05/22 03:58:26;;;;;;;2.30;1.90;;;15.20;99.90;15.30;100626.00;;;;5008486;27;88577;-68
2023/05/22 04:00:59;;;;;;;2.58;2.38;;;15.20;99.90;15.30;100617.00;;;;5004812;27;87792;-70
2023/05/22 04:03:26;;;;;;;2.58;2.38;;;15.20;99.90;15.40;100618.00;;;;5005863;27;87881;-69
2023/05/22 04:05:52;;;;;;;3.20;2.58;;;15.30;99.90;15.40;100613.00;;;;4986001;27;91357;-69
2023/05/22 04:08:18;;;;;;;2.33;2.13;;;15.30;99.90;15.40;100606.00;;;;5004358;27;89602;-69
2023/05/22 04:10:45;;;;;;;2.95;2.42;;;15.40;99.90;15.50;100610.00;;;;5008149;27;110713;-69
2023/05/22 04:13:15;;;;;;;3.95;2.70;;;15.40;99.90;15.60;100605.00;;;;5005025;27;87893;-69
2023/05/22 04:15:44;;;;;;;3.25;2.33;;;15.50;99.90;15.60;100600.00;;;;4989702;27;88048;-69
2023/05/22 04:18:10;;;;;;;2.60;2.40;;;15.50;99.90;15.70;100609.00;;;;5006981;27;89037;-70
2023/05/22 04:20:36;;;;;;;5.03;3.08;;;15.60;99.90;15.80;100617.00;;;;4995279;27;88090;-71
2023/05/22 04:23:02;;;;;;;3.28;2.38;;;15.70;99.90;15.90;100613.00;;;;5005972;27;100810;-69
2023/05/22 04:25:28;;;;;;;2.90;1.85;;;15.80;99.90;16.00;100610.00;;;;5006761;27;88251;-69
2023/05/22 04:27:54;;;;;;;3.63;3.08;;;15.90;99.90;16.10;100616.00;;;;5009303;27;88913;-68
2023/05/22 04:30:20;;;;;;;5.57;2.97;;;15.90;99.90;16.20;100627.00;;;;4995612;27;104190;-69
2023/05/22 04:32:46;;;;;;;3.53;2.55;;;16.10;99.90;16.30;100618.00;;;;5006101;27;88082;-69
2023/05/22 04:35:12;;;;;;;3.55;2.22;;;16.10;99.90;16.40;100612.00;;;;4990507;27;117338;-67
2023/05/22 04:37:39;;;;;;;4.13;2.75;;;16.30;99.90;16.50;100617.00;;;;5004641;27;115908;-68
2023/05/22 04:40:10;;;;;;;3.15;2.08;;;16.30;99.90;16.60;100617.00;;;;5004416;27;87900;-69
2023/05/22 04:42:37;;;;;;;3.33;2.65;;;16.40;99.90;16.70;100626.00;;;;5000709;27;88091;-69
2023/05/22 04:45:04;;;;;;;2.78;2.45;;;16.50;99.90;16.80;100621.00;;;;5002753;27;88552;-68
2023/05/22 04:47:30;;;;;;;1.80;1.70;;;16.60;99.90;16.80;100628.00;;;;5001882;27;87715;-69
2023/05/22 04:49:59;;;;;;;3.53;2.33;;;16.70;99.90;16.90;100622.00;;;;4984523;27;87946;-70
2023/05/22 04:52:25;;;;;;;4.22;2.00;;;16.80;99.90;17.00;100636.00;;;;5005402;27;91259;-69
2023/05/22 04:54:51;;;;;;;3.33;3.03;;;16.80;99.90;17.00;100626.00;;;;5002893;27;118628;-68
2023/05/22 04:57:20;;;;;;;3.25;2.80;;;16.90;99.90;17.10;100625.00;;;;4990218;27;89771;-69
2023/05/22 04:59:46;;;;;;;3.03;2.55;;;17.00;99.90;17.20;100628.00;;;;5007471;27;88096;-69
2023/05/22 05:02:12;;;;;;;3.00;2.72;;;17.00;99.90;17.30;100617.00;;;;4996832;27;88048;-68
2023/05/22 05:04:38;;;;;;;3.03;2.35;;;17.10;99.80;17.40;100617.00;;;;5004407;27;109146;-69
2023/05/22 05:07:05;;;;;;;3.05;2.15;;;17.20;99.70;17.50;100613.00;;;;5002643;27;118339;-70
2023/05/22 05:09:30;;;;;;;3.75;2.08;;;17.30;99.60;17.60;100619.00;;;;5006316;27;88791;-69
2023/05/22 05:11:57;;;;;;;2.55;2.35;;;17.50;99.40;17.80;100622.00;;;;5002090;27;107867;-71
2023/05/22 05:14:23;;;;;;;3.88;2.40;;;17.60;98.90;17.90;100625.00;;;;5004436;27;87933;-70
2023/05/22 05:16:55;;;;;;;3.03;2.45;;;17.70;98.60;18.10;100621.00;;;;5003296;27;109295;-69
2023/05/22 05:19:21;;;;;;;5.07;2.33;;;17.10;98.00;18.20;100618.00;;;;5002959;27;88826;-68
2023/05/22 05:21:48;;;;;;;2.15;1.95;;;18.00;98.10;18.30;100613.00;;;;4994557;27;108677;-69
2023/05/22 05:24:15;;;;;;;2.95;2.20;;;18.10;98.10;18.40;100625.00;;;;5005017;27;87980;-69
2023/05/22 05:26:41;;;;;;;3.75;2.53;;;18.20;97.90;18.60;100620.00;;;;4995938;27;88898;-68
2023/05/22 05:29:07;;;;;;;1.83;1.73;;;18.40;97.60;18.70;100625.00;;;;5003671;27;109804;-69
2023/05/22 05:31:32;;;;;;;6.63;2.92;;;18.50;97.00;18.80;100618.00;;;;4979203;27;109668;-68
2023/05/22 05:33:58;;;;;;;2.60;2.33;;;18.60;96.80;18.90;100623.00;;;;5000101;27;88764;-68
2023/05/22 05:36:24;;;;;;;4.13;2.70;;;18.70;96.80;19.00;100619.00;;;;4987818;27;118387;-68
2023/05/22 05:38:50;;;;;;;2.70;2.17;;;18.70;96.10;19.00;100615.00;;;;4998694;27;87861;-68
2023/05/22 05:41:18;;;;;;;3.63;2.65;;;18.80;95.80;19.10;100621.00;;;;5001691;27;107136;-68
2023/05/22 05:43:44;;;;;;;2.70;2.17;;;18.90;95.50;19.20;100622.00;;;;5001207;27;89074;-69
2023/05/22 05:46:10;;;;;;;3.45;2.85;;;19.00;95.20;19.30;100619.00;;;;5003323;27;118316;-70
2023/05/22 05:48:35;;;;;;;2.97;2.75;;;19.10;94.80;19.40;100624.00;;;;4983624;27;91527;-69
2023/05/22 05:51:01;;;;;;;2.20;1.95;;;19.10;94.50;19.50;100617.00;;;;4991638;27;108557;-70
2023/05/22 05:53:27;;;;;;;2.83;2.38;;;19.30;94.00;19.60;100609.00;;;;5001625;27;117649;-69
2023/05/22 05:55:53;;;;;;;2.97;2.28;;;19.30;93.70;19.70;100622.00;;;;4996897;27;117582;-70
2023/05/22 05:58:18;;;;;;;2.42;2.22;;;19.50;93.60;19.90;100613.00;;;;5000347;27;102720;-70
2023/05/22 06:00:44;;;;;;;2.90;2.30;;;19.60;93.70;20.10;100612.00;;;;4997050;27;108294;-69
2023/05/22 06:03:10;;;;;;;4.15;2.42;;;19.80;93.40;20.30;100616.00;;;;5003684;27;88998;-71
2023/05/22 06:05:36;;;;;;;3.72;2.75;;;20.00;93.00;20.50;100611.00;;;;5002104;27;117799;-69
2023/05/22 06:08:03;;;;;;;3.35;2.05;;;20.20;92.60;20.70;100615.00;;;;5003440;27;111553;-68
2023/05/22 06:10:28;;;;;;;2.58;2.38;;;20.60;92.40;20.90;100606.00;;;;5004076;27;88317;-69
2023/05/22 06:12:54;;;;;;;3.88;2.63;;;20.60;91.30;20.90;100603.00;;;;5001602;27;117931;-69
2023/05/22 06:15:20;;;;;;;3.72;2.85;;;20.70;90.90;21.00;100606.00;;;;5004588;27;87683;-69
2023/05/22 06:17:45;;;;;;;3.28;2.50;;;20.70;91.00;21.00;100594.00;;;;5005923;27;109481;-68
2023/05/22 06:20:13;;;;;;;2.40;2.20;;;20.80;91.10;21.20;100599.00;;;;5003031;27;109245;-69
2023/05/22 06:22:38;;;;;;;3.70;2.38;;;20.90;91.00;21.30;100601.00;;;;4991043;27;88082;-69
2023/05/22 06:25:05;;;;;;;2.20;2.00;;;21.00;90.60;21.30;100596.00;;;;4985796;27;117263;-69
2023/05/22 06:27:30;;;;;;;4.65;2.30;;;21.10;90.50;21.50;100595.00;;;;4984339;27;89097;-68
2023/05/22 06:29:56;;;;;;;3.05;2.05;;;21.20;90.40;21.60;100601.00;;;;4989616;27;88689;-68
2023/05/22 06:32:22;;;;;;;3.72;2.95;;;21.30;90.20;21.70;100598.00;;;;4994855;27;89833;-70
2023/05/22 06:34:48;;;;;;;2.55;2.35;;;21.40;89.40;21.70;100596.00;;;;4997105;27;118792;-68
2023/05/22 06:37:14;;;;;;;2.08;1.85;;;21.50;88.50;21.70;100599.00;;;;4984182;27;91109;-70
2023/05/22 06:39:40;;;;;;;3.20;2.45;;;21.50;88.00;21.80;100594.00;;;;4980316;27;89021;-69
2023/05/22 06:42:06;;;;;;;3.70;2.30;;;21.60;87.20;21.90;100605.00;;;;4993021;27;118166;-69
2023/05/22 06:44:31;;;;;;;3.05;2.20;;;21.60;87.10;22.00;100602.00;;;;4986240;27;118114;-68
2023/05/22 06:46:57;;;;;;;2.17;2.00;;;21.70;87.20;22.10;100592.00;;;;5002922;27;88000;-69
2023/05/22 06:49:23;;;;;;;3.22;2.60;;;21.80;87.20;22.20;100599.00;;;;5001753;27;109094;-68
2023/05/22 06:51:49;;;;;;;3.63;2.17;;;21.90;87.20;22.30;100602.00;;;;4993698;27;117071;-70
2023/05/22 06:54:15;;;;;;;5.45;2.85;;;22.00;86.60;22.40;100601.00;;;;5001896;27;116592;-70
2023/05/22 06:56:41;;;;;;;2.13;1.92;;;22.10;87.00;22.40;100609.00;;;;5001604;27;110456;-69
2023/05/22 06:59:08;;;;;;;3.60;2.47;;;22.20;85.80;22.50;100608.00;;;;5003586;27;87719;-69
2023/05/22 07:01:34;;;;;;;3.42;2.42;;;22.30;85.10;22.60;100610.00;;;;5003105;27;88561;-69
2023/05/22 07:04:00;;;;;;;3.22;2.47;;;22.40;84.50;22.70;100614.00;;;;5000581;27;88672;-70
2023/05/22 07:06:26;;;;;;;2.65;2.45;;;22.40;83.80;22.80;100605.00;;;;5000937;27;87948;-69
2023/05/22 07:08:52;;;;;;;2.92;2.42;;;22.50;84.00;23.00;100609.00;;;;5007868;27;91401;-69
2023/05/22 07:11:18;;;;;;;3.08;2.13;;;22.70;82.90;23.10;100605.00;;;;4996815;27;117581;-69
2023/05/22 07:13:44;;;;;;;4.88;2.00;;;22.80;82.10;23.30;100609.00;;;;5008416;27;117753;-68
2023/05/22 07:16:10;;;;;;;2.20;1.95;;;23.00;81.60;23.40;100605.00;;;;5009079;27;109629;-68
2023/05/22 07:18:35;;;;;;;5.97;2.55;;;23.10;80.80;23.50;100607.00;;;;4990838;27;107190;-69
2023/05/22 07:21:01;;;;;;;3.83;2.92;;;23.30;80.30;23.70;100614.00;;;;5000306;27;89742;-69
2023/05/22 07:23:27;;;;;;;4.63;2.42;;;23.40;79.80;23.80;100615.00;;;;5004556;27;118725;-69
2023/05/22 07:25:52;;;;;;;2.47;1.83;;;23.50;78.90;23.80;100612.00;;;;5006789;27;111347;-71
2023/05/22 07:28:18;;;;;;;3.00;2.45;;;23.60;78.50;23.90;100608.00;;;;5005412;27;108120;-70
2023/05/22 07:30:44;;;;;;;2.35;2.00;;;23.60;77.70;23.90;100619.00;;;;5004793;27;117934;-69
2023/05/22 07:33:10;;;;;;;2.25;2.03;;;23.70;77.70;23.90;100609.00;;;;5004624;27;114376;-69
2023/05/22 07:35:36;;;;;;;2.42;2.05;;;23.70;76.90;23.90;100613.00;;;;5005065;27;88204;-69
2023/05/22 07:38:02;;;;;;;3.67;2.03;;;23.70;76.10;23.90;100609.00;;;;5004972;27;90481;-71
2023/05/22 07:40:28;;;;;;;5.95;3.00;;;23.70;76.70;24.00;100608.00;;;;4985631;27;89214;-70
2023/05/22 07:42:54;;;;;;;2.28;1.88;;;23.70;76.70;24.10;100612.00;;;;5005640;27;116850;-69
2023/05/22 07:45:19;;;;;;;7.18;3.33;;;23.80;76.90;24.20;100614.00;;;;5004166;27;88741;-69
2023/05/22 07:47:45;;;;;;;3.17;2.05;;;24.00;75.80;24.30;100614.00;;;;5005359;27;101218;-70
2023/05/22 07:50:11;;;;;;;3.25;2.72;;;24.00;75.40;24.30;100607.00;;;;5005750;27;87903;-69
2023/05/22 07:52:36;;;;;;;5.50;1.85;;;24.10;75.50;24.40;100607.00;;;;4996816;27;117418;-69
2023/05/22 07:55:02;;;;;;;2.22;1.95;;;24.20;75.00;24.50;100606.00;;;;5006861;27;110552;-70
2023/05/22 07:57:31;;;;;;;3.47;2.55;;;24.30;74.10;24.60;100608.00;;;;5005437;27;95365;-70
2023/05/22 07:59:58;;;;;;;2.75;2.35;;;24.40;72.60;24.70;100617.00;;;;5003045;27;88011;-70
2023/05/22 08:02:23;;;;;;;2.90;2.15;;;24.40;72.50;24.90;100610.00;;;;4996832;27;88978;-69
2023/05/22 08:04:49;;;;;;;3.28;2.03;;;24.60;72.00;25.00;100610.00;;;;4998320;27;109685;-69
2023/05/22 08:07:14;;;;;;;3.17;2.00;;;24.70;72.10;25.30;100617.00;;;;4984202;27;99449;-70
2023/05/22 08:09:40;;;;;;;2.17;1.55;;;25.00;70.50;25.60;100602.00;;;;5004233;27;118761;-70
2023/05/22 08:12:07;;;;;;;2.22;1.65;;;25.20;69.00;25.90;100606.00;;;;5005690;27;88095;-71
2023/05/22 08:14:32;;;;;;;2.35;2.03;;;25.50;69.00;26.20;100612.00;;;;5005153;27;101529;-73
2023/05/22 08:16:59;;;;;;;2.25;2.05;;;25.80;67.40;26.40;100608.00;;;;4978928;27;108577;-71
2023/05/22 08:19:24;;;;;;;2.10;1.70;;;26.10;64.50;26.60;100603.00;;;;5005299;27;87885;-72
2023/05/22 08:21:56;;;;;;;3.40;2.65;;;26.20;64.20;26.70;100604.00;;;;4998320;27;115387;-71
2023/05/22 08:24:27;;;;;;;4.88;2.50;;;26.40;63.60;26.90;100611.00;;;;5005202;27;87784;-73
2023/05/22 08:26:54;;;;;;;2.72;2.38;;;26.60;62.20;27.10;100608.00;;;;4997480;27;87362;-72
2023/05/22 08:29:20;;;;;;;2.47;1.80;;;26.80;59.40;27.20;100606.00;;;;4995011;27;90205;-72
2023/05/22 08:31:45;;;;;;;1.77;1.63;;;26.90;59.00;27.30;100598.00;;;;4986445;27;111632;-74
2023/05/22 08:34:11;;;;;;;2.67;2.20;;;27.00;57.00;27.30;100603.00;;;;5003120;27;108746;-72
2023/05/22 08:36:37;;;;;;;3.67;2.40;;;27.00;56.00;27.20;100603.00;;;;5004126;27;107599;-72
2023/05/22 08:39:05;;;;;;;3.38;2.53;;;27.00;56.30;27.20;100598.00;;;;5003216;27;89541;-74
2023/05/22 08:41:30;;;;;;;2.10;1.80;;;26.90;55.70;27.30;100603.00;;;;4995832;27;89659;-71
2023/05/22 08:43:56;;;;;;;2.25;1.77;;;27.00;55.60;27.50;100599.00;;;;5003427;27;104559;-72
2023/05/22 08:46:27;;;;;;;2.35;1.75;;;27.10;54.30;27.70;100601.00;;;;5005858;27;108562;-72
2023/05/22 08:48:57;;;;;;;5.03;2.35;;;27.30;55.30;27.90;100591.00;;;;5004301;27;88261;-70
2023/05/22 08:51:30;;;;;;;2.30;1.65;;;27.50;54.90;28.20;100593.00;;;;4996875;27;87795;-72
2023/05/22 08:53:56;;;;;;;2.63;1.80;;;27.80;54.90;28.50;100592.00;;;;4991804;27;87921;-74
2023/05/22 08:56:22;;;;;;;6.07;1.77;;;28.00;50.80;28.30;100583.00;;;;4995066;27;88040;-73
2023/05/22 08:58:50;;;;;;;3.08;1.95;;;28.00;48.90;28.20;100582.00;;;;4986833;28;91314;-70
2023/05/22 09:01:16;;;;;;;1.50;1.40;;;27.90;48.80;28.10;100578.00;;;;4967568;27;89077;-72
2023/05/22 09:03:41;;;;;;;3.03;1.88;;;27.90;49.20;28.10;100572.00;;;;4989334;27;88156;-74
2023/05/22 09:06:10;;;;;;;3.28;1.98;;;27.80;49.40;28.30;100573.00;;;;4992318;27;108439;-72
2023/05/22 09:08:37;;;;;;;2.60;1.83;;;27.90;49.30;28.30;100577.00;;;;5002879;27;96348;-71
2023/05/22 09:11:03;;;;;;;1.77;1.30;;;27.90;48.80;28.30;100564.00;;;;4976229;27;89499;-71
2023/05/22 09:13:30;;;;;;;3.05;1.55;;;28.00;47.30;28.10;100571.00;;;;5001674;27;98770;-71
2023/05/22 09:16:08;;;;;;;2.63;1.58;;;27.90;47.70;27.90;100562.00;;;;5005218;27;95758;-73
2023/05/22 09:18:36;;;;;;;1.42;1.20;;;27.70;47.60;27.90;100565.00;;;;4992418;27;88285;-73
2023/05/22 09:21:02;;;;;;;6.45;1.85;;;27.60;48.30;28.00;100563.00;;;;4995395;27;88249;-71
2023/05/22 09:23:28;;;;;;;1.80;1.40;;;27.60;48.00;28.10;100560.00;;;;5001602;27;102251;-73
2023/05/22 09:26:00;;;;;;;2.33;1.60;;;27.70;48.40;28.20;100567.00;;;;4965909;28;98911;-74
2023/05/22 09:28:28;;;;;;;2.10;1.30;;;27.80;46.60;28.20;100572.00;;;;4992502;27;88618;-72
2023/05/22 09:30:54;;;;;;;4.82;2.08;;;27.80;47.00;28.40;100564.00;;;;4992774;27;87880;-72
2023/05/22 09:33:23;;;;;;;1.30;1.20;;;28.00;46.80;28.70;100566.00;;;;5002716;27;87910;-73
2023/05/22 09:35:52;;;;;;;1.40;1.30;;;28.20;46.60;28.80;100565.00;;;;5001420;27;87882;-71
2023/05/22 09:38:18;;;;;;;2.15;1.35;;;28.40;45.60;29.10;100564.00;;;;5003399;27;88944;-72
2023/05/22 09:40:44;;;;;;;2.42;1.58;;;28.60;45.10;29.20;100565.00;;;;4988089;27;88652;-73
2023/05/22 09:43:11;;;;;;;1.25;1.10;;;28.80;43.20;29.20;100567.00;;;;5004547;27;88077;-69
2023/05/22 09:45:38;;;;;;;1.65;1.35;;;28.80;43.30;29.20;100562.00;;;;5003099;27;100077;-72
2023/05/22 09:48:08;;;;;;;1.05;0.77;;;28.80;43.90;29.40;100556.00;;;;4992241;27;101736;-72
2023/05/22 09:50:35;;;;;;;2.30;1.33;;;29.00;44.80;29.70;100555.00;;;;4998195;27;89084;-72
2023/05/22 09:53:02;;;;;;;1.50;1.17;;;29.20;43.80;29.60;100557.00;;;;4998691;27;87717;-71
2023/05/22 09:55:29;;;;;;;1.50;1.25;;;29.20;42.00;29.40;100549.00;;;;5006890;27;87891;-72
2023/05/22 09:57:55;;;;;;;2.30;1.55;;;29.10;42.40;29.50;100546.00;;;;5002841;27;88790;-74
2023/05/22 10:00:23;;;;;;;2.55;1.90;;;29.10;43.40;29.70;100551.00;;;;4975424;27;94545;-72
2023/05/22 10:03:04;;;;;;;1.88;1.20;;;29.20;43.40;29.70;100553.00;;;;5000068;27;93716;-73
2023/05/22 10:05:31;;;;;;;21.27;1.50;;;29.30;42.20;29.60;100546.00;;;;4981433;28;87114;-73
2023/05/22 10:08:27;;;;;;;3.03;1.25;;;29.20;42.00;29.40;100549.00;;;;4998474;27;89672;-73
2023/05/22 10:10:53;;;;;;;1.60;1.35;;;29.10;41.80;29.20;100552.00;;;;5001004;27;88203;-73
2023/05/22 10:13:20;;;;;;;1.33;1.23;;;28.90;41.70;29.10;100536.00;;;;5001445;27;110544;-74
2023/05/22 10:15:47;;;;;;;0.98;0.93;;;28.80;41.80;29.10;100540.00;;;;4986511;27;88193;-73
2023/05/22 10:18:15;;;;;;;4.97;2.13;;;28.70;42.60;29.20;100541.00;;;;4993860;27;87836;-73
2023/05/22 10:20:41;;;;;;;2.05;1.38;;;28.70;43.00;29.30;100518.00;;;;4996030;27;88538;-73
2023/05/22 10:23:09;;;;;;;1.67;1.30;;;28.80;41.20;29.30;100529.00;;;;4961396;27;98664;-74
2023/05/22 10:25:37;;;;;;;4.13;1.30;;;28.90;40.50;29.40;100527.00;;;;5004846;27;87687;-71
2023/05/22 10:28:03;;;;;;;1.48;0.90;;;29.00;40.70;29.40;100527.00;;;;4990863;27;99763;-73
2023/05/22 10:30:57;;;;;;;2.00;1.35;;;28.90;41.00;29.60;100519.00;;;;4987471;27;89213;-74
2023/05/22 10:33:36;;;;;;;2.85;1.13;;;29.00;41.50;29.90;100509.00;;;;4992938;27;87669;-72
2023/05/22 10:36:07;;;;;;;1.50;1.40;;;29.20;41.80;30.30;100513.00;;;;4991755;27;89424;-71
2023/05/22 10:38:54;;;;;;;3.05;1.48;;;29.60;40.90;30.60;100518.00;;;;4992041;27;88937;-72
2023/05/22 10:41:21;;;;;;;1.83;1.42;;;29.90;40.20;30.80;100508.00;;;;4995420;27;88170;-71
2023/05/22 10:43:50;;;;;;;1.35;1.23;;;30.10;39.60;31.10;100511.00;;;;5006371;27;88079;-73
2023/05/22 10:46:17;;;;;;;2.10;1.48;;;30.40;39.60;31.40;100513.00;;;;4966092;27;88008;-72
2023/05/22 10:48:48;;;;;;;1.77;1.48;;;30.70;39.00;31.60;100501.00;;;;5007133;27;105751;-73